Time;durP1;ratioP1;P1;durP2;ratioP2;P2;SDS_P1;SDS_P2;PMS_P1;PMS_P2;Temp;Humidity;BMP_temperature;BMP_pressure;BME280_temperature;BME280_humidity;BME280_pressure;Samples;Min_cycle;Max_cycle;Signal;HPM_P1;HPM_P2
2023/09/16 00:00:54;;;;;;;12.77;8.48;;;12.10;99.90;;;;;;5025545;28;20033;-63
2023/09/16 00:03:20;;;;;;;12.65;8.00;;;12.10;99.90;;;;;;5029210;28;20370;-64
2023/09/16 00:05:45;;;;;;;10.98;7.43;;;12.10;99.90;;;;;;5030346;28;20100;-63
2023/09/16 00:08:11;;;;;;;15.25;8.40;;;12.10;99.90;;;;;;5028187;28;20045;-64
2023/09/16 00:10:36;;;;;;;9.77;7.22;;;12.00;99.90;;;;;;5029271;28;20185;-63
2023/09/16 00:13:02;;;;;;;11.05;7.63;;;12.00;99.90;;;;;;5028286;28;20049;-63
2023/09/16 00:15:28;;;;;;;11.20;8.10;;;11.90;99.90;;;;;;5009490;28;20113;-64
2023/09/16 00:17:54;;;;;;;10.90;7.82;;;11.90;99.90;;;;;;5027486;28;20047;-63
2023/09/16 00:20:20;;;;;;;12.30;8.20;;;11.90;99.90;;;;;;5030224;28;20361;-64
2023/09/16 00:22:46;;;;;;;12.02;8.27;;;11.90;99.90;;;;;;5029737;28;20755;-63
2023/09/16 00:25:12;;;;;;;11.25;8.30;;;11.80;99.90;;;;;;5046140;28;20124;-63
2023/09/16 00:27:41;;;;;;;12.93;8.00;;;11.90;99.90;;;;;;5049813;28;20187;-64
2023/09/16 00:30:08;;;;;;;10.73;7.90;;;11.80;99.90;;;;;;5046228;28;20056;-64
2023/09/16 00:32:33;;;;;;;11.48;7.90;;;11.80;99.90;;;;;;5038761;28;20141;-66
2023/09/16 00:34:59;;;;;;;10.82;7.20;;;11.80;99.90;;;;;;5028075;28;20045;-65
2023/09/16 00:37:25;;;;;;;11.45;7.90;;;11.80;99.90;;;;;;5028119;28;20107;-64
2023/09/16 00:39:51;;;;;;;11.57;7.85;;;11.80;99.90;;;;;;5010782;28;20037;-63
2023/09/16 00:42:17;;;;;;;12.77;8.85;;;11.80;99.90;;;;;;5028137;28;20080;-63
2023/09/16 00:44:43;;;;;;;12.18;8.65;;;11.80;99.90;;;;;;5026082;28;20111;-63
2023/09/16 00:47:09;;;;;;;12.32;8.75;;;11.80;99.90;;;;;;5027579;28;20072;-63
2023/09/16 00:49:35;;;;;;;11.15;8.02;;;11.70;99.90;;;;;;5012080;28;20053;-63
2023/09/16 00:52:02;;;;;;;10.68;8.40;;;11.70;99.90;;;;;;5027318;28;20038;-64
2023/09/16 00:54:28;;;;;;;11.00;7.55;;;11.70;99.90;;;;;;5028475;28;20095;-63
2023/09/16 00:56:54;;;;;;;12.05;8.02;;;11.70;99.90;;;;;;5032322;28;20496;-63
2023/09/16 00:59:22;;;;;;;9.68;7.53;;;11.70;99.90;;;;;;5029521;28;20045;-63
2023/09/16 01:01:51;;;;;;;11.02;7.78;;;11.70;99.90;;;;;;5032195;28;20057;-63
2023/09/16 01:04:19;;;;;;;9.23;7.10;;;11.70;99.90;;;;;;5031942;28;20064;-63
2023/09/16 01:06:44;;;;;;;9.82;7.30;;;11.60;99.90;;;;;;5033231;28;20037;-63
2023/09/16 01:09:15;;;;;;;10.00;7.30;;;11.60;99.90;;;;;;5030200;28;20611;-64
2023/09/16 01:11:41;;;;;;;11.48;8.00;;;11.60;99.90;;;;;;5031285;28;20334;-64
2023/09/16 01:14:11;;;;;;;11.93;8.10;;;11.60;99.90;;;;;;5013997;28;20038;-63
2023/09/16 01:16:57;;;;;;;13.50;9.30;;;11.50;99.90;;;;;;5031218;28;20037;-63
2023/09/16 01:19:50;;;;;;;11.02;8.20;;;11.50;99.90;;;;;;5032785;28;20096;-64
2023/09/16 01:22:16;;;;;;;11.02;8.10;;;11.50;99.90;;;;;;5031779;28;20049;-63
2023/09/16 01:24:41;;;;;;;12.27;8.60;;;11.50;99.90;;;;;;5038098;28;20071;-64
2023/09/16 01:27:07;;;;;;;14.75;9.30;;;11.60;99.90;;;;;;5031044;28;20110;-63
2023/09/16 01:29:35;;;;;;;10.30;8.00;;;11.60;99.90;;;;;;5030604;28;20049;-63
2023/09/16 01:32:05;;;;;;;11.50;7.82;;;11.60;99.90;;;;;;5030487;28;20152;-63
2023/09/16 01:34:41;;;;;;;;;;;11.60;99.90;;;;;;5015127;28;20403;-63
2023/09/16 01:37:17;;;;;;;11.85;7.05;;;11.60;99.90;;;;;;5030884;28;20369;-63
2023/09/16 01:39:46;;;;;;;10.18;7.32;;;11.50;99.90;;;;;;5031546;28;20091;-64
2023/09/16 01:42:13;;;;;;;12.52;8.82;;;11.60;99.90;;;;;;5032488;28;20037;-64
2023/09/16 01:44:38;;;;;;;10.32;8.27;;;11.60;99.90;;;;;;5029504;28;20037;-63
2023/09/16 01:47:07;;;;;;;12.63;8.20;;;11.50;99.90;;;;;;5031646;28;20033;-63
2023/09/16 01:49:32;;;;;;;10.98;8.18;;;11.50;99.90;;;;;;5030783;28;20047;-64
2023/09/16 01:51:58;;;;;;;10.23;8.10;;;11.50;99.90;;;;;;5031052;28;20427;-63
2023/09/16 01:54:23;;;;;;;10.25;7.85;;;11.50;99.90;;;;;;5031497;28;20041;-63
2023/09/16 01:56:49;;;;;;;9.48;7.20;;;11.50;99.90;;;;;;5014299;28;20048;-64
2023/09/16 01:59:14;;;;;;;10.65;7.88;;;11.40;99.90;;;;;;5029107;28;20041;-65
2023/09/16 02:01:40;;;;;;;11.43;9.05;;;11.40;99.90;;;;;;5042714;28;20048;-64
2023/09/16 02:04:07;;;;;;;12.32;8.85;;;11.40;99.90;;;;;;5051506;28;20049;-64
2023/09/16 02:06:32;;;;;;;14.27;9.85;;;11.40;99.90;;;;;;5051316;28;20033;-64
2023/09/16 02:08:58;;;;;;;14.43;9.77;;;11.40;99.90;;;;;;5050734;28;20059;-64
2023/09/16 02:11:23;;;;;;;15.63;10.63;;;11.40;99.90;;;;;;5051191;28;20498;-64
2023/09/16 02:13:49;;;;;;;16.38;10.70;;;11.40;99.90;;;;;;5051856;28;20047;-64
2023/09/16 02:16:14;;;;;;;16.83;10.13;;;11.30;99.90;;;;;;5047980;28;20442;-64
2023/09/16 02:18:40;;;;;;;13.43;9.00;;;11.30;99.90;;;;;;5033912;28;20148;-64
2023/09/16 02:21:07;;;;;;;14.55;10.27;;;11.30;99.90;;;;;;5030044;28;20049;-64
2023/09/16 02:23:33;;;;;;;14.93;10.52;;;11.30;99.90;;;;;;5035220;28;20041;-63
2023/09/16 02:26:00;;;;;;;17.25;10.85;;;11.40;99.90;;;;;;5049406;28;20391;-64
2023/09/16 02:28:26;;;;;;;15.25;11.75;;;11.40;99.90;;;;;;5049808;28;20045;-63
2023/09/16 02:30:51;;;;;;;17.73;12.48;;;11.30;99.90;;;;;;5047430;28;20048;-63
2023/09/16 02:33:17;;;;;;;20.63;14.23;;;11.30;99.90;;;;;;5048951;28;20410;-64
2023/09/16 02:35:43;;;;;;;18.95;13.00;;;11.30;99.90;;;;;;5050550;28;20534;-63
2023/09/16 02:38:09;;;;;;;17.08;12.63;;;11.30;99.90;;;;;;5040712;28;20037;-63
2023/09/16 02:40:41;;;;;;;19.27;13.82;;;11.30;99.90;;;;;;5030743;28;20080;-64
2023/09/16 02:43:10;;;;;;;18.08;13.60;;;11.30;99.90;;;;;;5029557;28;20109;-63
2023/09/16 02:45:40;;;;;;;19.98;14.18;;;11.30;99.90;;;;;;5027440;28;20124;-64
2023/09/16 02:48:06;;;;;;;19.50;13.65;;;11.30;99.90;;;;;;5029399;28;20041;-63
2023/09/16 02:50:36;;;;;;;21.60;14.32;;;11.30;99.90;;;;;;5029643;28;20099;-63
2023/09/16 02:53:02;;;;;;;;;;;11.30;99.90;;;;;;5029696;28;20041;-63
2023/09/16 02:55:28;;;;;;;15.68;11.95;;;11.30;99.90;;;;;;5029926;28;19917;-63
2023/09/16 02:57:54;;;;;;;12.95;10.07;;;11.30;99.90;;;;;;5031016;28;20043;-63
2023/09/16 03:00:20;;;;;;;9.60;7.88;;;11.30;99.90;;;;;;5027043;28;20119;-64
2023/09/16 03:02:49;;;;;;;13.75;10.07;;;11.30;99.90;;;;;;5030354;28;20594;-64
2023/09/16 03:05:16;;;;;;;13.07;10.15;;;11.30;99.90;;;;;;5030857;28;20049;-64
2023/09/16 03:07:41;;;;;;;15.02;11.40;;;11.30;99.90;;;;;;5030500;28;20040;-64
2023/09/16 03:10:07;;;;;;;16.63;12.13;;;11.30;99.90;;;;;;5028545;28;20049;-63
2023/09/16 03:12:33;;;;;;;18.33;12.75;;;11.30;99.90;;;;;;5035012;28;20055;-63
2023/09/16 03:14:58;;;;;;;18.55;13.85;;;11.20;99.90;;;;;;5048325;28;20037;-63
2023/09/16 03:17:26;;;;;;;21.67;14.30;;;11.20;99.90;;;;;;5048567;28;20041;-64
2023/09/16 03:19:52;;;;;;;17.70;13.98;;;11.20;99.90;;;;;;5048728;28;20048;-64
2023/09/16 03:22:18;;;;;;;19.92;13.65;;;11.20;99.90;;;;;;5049315;28;20098;-63
2023/09/16 03:24:43;;;;;;;16.80;12.40;;;11.20;99.90;;;;;;5047224;28;20037;-63
2023/09/16 03:27:09;;;;;;;14.18;11.07;;;11.30;99.90;;;;;;5048563;28;20128;-64
2023/09/16 03:29:35;;;;;;;12.73;9.40;;;11.20;99.90;;;;;;5018547;28;20246;-64
2023/09/16 03:32:00;;;;;;;12.65;10.40;;;11.20;99.90;;;;;;5028183;28;20068;-63
2023/09/16 03:34:26;;;;;;;13.95;11.43;;;11.10;99.90;;;;;;5030520;28;20089;-65
2023/09/16 03:36:52;;;;;;;16.20;11.43;;;11.10;99.90;;;;;;5044019;28;20040;-63
2023/09/16 03:39:17;;;;;;;15.77;11.82;;;11.00;99.90;;;;;;5047031;28;20088;-63
2023/09/16 03:41:43;;;;;;;16.13;12.73;;;11.00;99.90;;;;;;5048530;28;20045;-63
2023/09/16 03:44:09;;;;;;;14.02;11.00;;;11.00;99.90;;;;;;5047289;28;20067;-64
2023/09/16 03:46:35;;;;;;;13.77;11.32;;;11.00;99.90;;;;;;5048738;28;20040;-64
2023/09/16 03:49:01;;;;;;;12.95;10.23;;;11.00;99.90;;;;;;5047758;28;20041;-64
2023/09/16 03:51:27;;;;;;;10.55;8.07;;;11.00;99.90;;;;;;5050109;28;20359;-64
2023/09/16 03:53:53;;;;;;;9.45;8.40;;;10.90;99.90;;;;;;5048227;28;20037;-63
2023/09/16 03:56:19;;;;;;;9.32;8.32;;;10.90;99.90;;;;;;5047708;28;20068;-64
2023/09/16 03:58:44;;;;;;;8.70;7.65;;;10.90;99.90;;;;;;5048375;28;20623;-64
2023/09/16 04:01:10;;;;;;;10.15;7.70;;;10.80;99.90;;;;;;5041882;28;20040;-64
2023/09/16 04:03:36;;;;;;;9.55;7.60;;;10.80;99.90;;;;;;5027676;28;20378;-63
2023/09/16 04:06:03;;;;;;;8.43;7.57;;;10.80;99.90;;;;;;5028715;28;20064;-64
2023/09/16 04:08:29;;;;;;;6.82;6.18;;;10.70;99.90;;;;;;5028119;28;20069;-63
2023/09/16 04:10:56;;;;;;;7.18;6.47;;;10.70;99.90;;;;;;5029334;28;20076;-64
2023/09/16 04:13:22;;;;;;;6.30;5.78;;;10.70;99.90;;;;;;5028330;28;20604;-63
2023/09/16 04:15:48;;;;;;;5.82;5.32;;;10.70;99.90;;;;;;5026445;28;20508;-63
2023/09/16 04:18:14;;;;;;;6.45;5.78;;;10.70;99.90;;;;;;5032359;28;20072;-63
2023/09/16 04:20:39;;;;;;;5.80;5.30;;;10.70;99.90;;;;;;5048073;28;20445;-64
2023/09/16 04:23:05;;;;;;;6.60;6.00;;;10.70;99.90;;;;;;5047790;28;20079;-64
2023/09/16 04:25:31;;;;;;;7.00;6.30;;;10.60;99.90;;;;;;5047153;28;20486;-63
2023/09/16 04:27:57;;;;;;;6.57;5.97;;;10.70;99.90;;;;;;5048403;28;20055;-63
2023/09/16 04:30:23;;;;;;;7.80;7.00;;;10.60;99.90;;;;;;5047002;28;20045;-63
2023/09/16 04:32:48;;;;;;;8.52;7.55;;;10.60;99.90;;;;;;5051484;28;20048;-64
2023/09/16 04:35:14;;;;;;;9.10;7.68;;;10.60;99.90;;;;;;5052076;28;20040;-63
2023/09/16 04:37:40;;;;;;;9.55;7.85;;;10.60;99.90;;;;;;5051047;28;20055;-64
2023/09/16 04:40:10;;;;;;;9.98;8.82;;;10.50;99.90;;;;;;5051247;28;20583;-63
2023/09/16 04:42:37;;;;;;;10.57;8.98;;;10.60;99.90;;;;;;5051867;28;20057;-63
2023/09/16 04:45:03;;;;;;;10.32;8.50;;;10.60;99.90;;;;;;5048854;28;20044;-63
2023/09/16 04:47:29;;;;;;;13.38;8.98;;;10.60;99.90;;;;;;5051432;28;20045;-63
2023/09/16 04:49:54;;;;;;;9.57;8.23;;;10.50;99.90;;;;;;5052005;28;20127;-64
2023/09/16 04:52:21;;;;;;;10.32;8.30;;;10.50;99.90;;;;;;5052073;28;20414;-63
2023/09/16 04:54:47;;;;;;;14.15;11.23;;;10.50;99.90;;;;;;5050522;28;20040;-63
2023/09/16 04:57:13;;;;;;;14.40;11.02;;;10.40;99.90;;;;;;5053231;28;20037;-63
2023/09/16 04:59:39;;;;;;;15.05;10.98;;;10.40;99.90;;;;;;5051286;28;20045;-65
2023/09/16 05:02:04;;;;;;;13.90;10.18;;;10.40;99.90;;;;;;5049946;28;20806;-64
2023/09/16 05:04:30;;;;;;;14.60;10.30;;;10.40;99.90;;;;;;5053200;28;20041;-64
2023/09/16 05:06:56;;;;;;;15.35;11.68;;;10.40;99.90;;;;;;5053146;28;20045;-64
2023/09/16 05:09:22;;;;;;;15.95;11.55;;;10.40;99.90;;;;;;5049873;28;20041;-64
2023/09/16 05:11:47;;;;;;;15.80;12.32;;;10.40;99.90;;;;;;5051167;28;20123;-64
2023/09/16 05:14:13;;;;;;;16.55;11.63;;;10.50;99.90;;;;;;5051089;28;20128;-64
2023/09/16 05:16:38;;;;;;;14.75;11.15;;;10.50;99.90;;;;;;5052630;28;20044;-64
2023/09/16 05:19:04;;;;;;;13.45;10.60;;;10.50;99.90;;;;;;5035999;28;20042;-64
2023/09/16 05:21:29;;;;;;;20.00;12.10;;;10.50;99.90;;;;;;5033007;28;20033;-64
2023/09/16 05:23:55;;;;;;;13.38;10.57;;;10.50;99.90;;;;;;5044994;28;20068;-64
2023/09/16 05:26:21;;;;;;;12.30;10.55;;;10.50;99.90;;;;;;5050064;28;20045;-64
2023/09/16 05:28:46;;;;;;;15.98;11.30;;;10.60;99.90;;;;;;5051172;28;20630;-64
2023/09/16 05:31:12;;;;;;;16.88;11.35;;;10.60;99.90;;;;;;5048980;28;20434;-63
2023/09/16 05:33:37;;;;;;;21.83;11.65;;;10.50;99.90;;;;;;5049662;28;20120;-63
2023/09/16 05:36:03;;;;;;;16.33;11.60;;;10.60;99.90;;;;;;5047742;28;20041;-63
2023/09/16 05:38:28;;;;;;;14.18;10.52;;;10.50;99.90;;;;;;5031743;28;20041;-63
2023/09/16 05:40:54;;;;;;;16.52;10.55;;;10.60;99.90;;;;;;5029916;28;20501;-63
2023/09/16 05:43:19;;;;;;;13.20;8.77;;;10.60;99.90;;;;;;5031698;28;20132;-64
2023/09/16 05:45:50;;;;;;;13.18;8.90;;;10.60;99.90;;;;;;5028592;28;20124;-63
2023/09/16 05:48:16;;;;;;;10.38;8.23;;;10.60;99.90;;;;;;5038417;28;20118;-64
2023/09/16 05:50:42;;;;;;;10.13;8.50;;;10.60;99.90;;;;;;5052164;28;20044;-64
2023/09/16 05:53:07;;;;;;;12.13;9.00;;;10.70;99.90;;;;;;5050423;28;20041;-63
2023/09/16 05:55:38;;;;;;;12.15;8.90;;;10.60;99.90;;;;;;5036609;28;20044;-64
2023/09/16 05:58:06;;;;;;;12.15;9.18;;;10.70;99.90;;;;;;5030353;28;20077;-63
2023/09/16 06:00:32;;;;;;;10.77;9.07;;;10.70;99.90;;;;;;5028205;28;20045;-63
2023/09/16 06:02:58;;;;;;;12.43;9.90;;;10.80;99.90;;;;;;5029660;28;20058;-64
2023/09/16 06:05:23;;;;;;;11.60;9.10;;;10.80;99.90;;;;;;5032096;28;20175;-64
2023/09/16 06:07:49;;;;;;;12.30;9.57;;;10.80;99.90;;;;;;5030336;28;20052;-64
2023/09/16 06:10:14;;;;;;;12.57;10.02;;;10.90;99.90;;;;;;5033300;28;20116;-63
2023/09/16 06:12:40;;;;;;;11.18;9.18;;;10.90;99.90;;;;;;5049428;28;20061;-64
2023/09/16 06:15:08;;;;;;;14.48;10.52;;;11.00;99.90;;;;;;5049477;28;20625;-63
2023/09/16 06:17:33;;;;;;;11.32;9.70;;;11.10;99.90;;;;;;5048742;28;20431;-63
2023/09/16 06:19:59;;;;;;;12.80;10.35;;;11.10;99.90;;;;;;5049717;28;20116;-63
2023/09/16 06:22:24;;;;;;;12.50;10.15;;;11.20;99.90;;;;;;5047240;28;20033;-65
2023/09/16 06:24:53;;;;;;;12.55;10.10;;;11.40;99.90;;;;;;5048640;28;20136;-64
2023/09/16 06:27:19;;;;;;;13.48;10.98;;;11.60;99.90;;;;;;5049582;28;20049;-63
2023/09/16 06:29:46;;;;;;;12.23;10.52;;;11.70;99.90;;;;;;5047174;28;20033;-64
2023/09/16 06:32:12;;;;;;;13.82;11.48;;;11.90;99.90;;;;;;5050094;28;20504;-64
2023/09/16 06:34:38;;;;;;;15.88;12.20;;;12.10;99.90;;;;;;5049407;28;20085;-65
2023/09/16 06:37:05;;;;;;;17.42;13.52;;;12.30;99.90;;;;;;5027185;28;20030;-64
2023/09/16 06:39:32;;;;;;;19.85;14.35;;;12.50;99.90;;;;;;5029223;28;20378;-64
2023/09/16 06:41:57;;;;;;;15.82;13.43;;;12.80;99.90;;;;;;5029958;28;20037;-63
2023/09/16 06:44:23;;;;;;;15.43;12.68;;;13.00;99.90;;;;;;5043399;28;20033;-64
2023/09/16 06:46:48;;;;;;;14.77;11.32;;;13.20;99.90;;;;;;5050667;28;20068;-64
2023/09/16 06:49:14;;;;;;;13.80;11.75;;;13.50;99.90;;;;;;5033017;28;20469;-66
2023/09/16 06:51:39;;;;;;;14.25;11.55;;;13.80;99.90;;;;;;5032793;28;20555;-65
2023/09/16 06:54:05;;;;;;;13.15;10.73;;;14.10;99.90;;;;;;5036143;28;20620;-65
2023/09/16 06:56:30;;;;;;;13.85;10.68;;;14.40;99.90;;;;;;5029053;28;20450;-64
2023/09/16 06:58:56;;;;;;;18.70;14.50;;;14.60;99.90;;;;;;5028740;28;20096;-65
2023/09/16 07:01:23;;;;;;;16.95;12.23;;;14.90;99.90;;;;;;5029602;28;20045;-64
2023/09/16 07:03:48;;;;;;;17.15;13.95;;;15.10;99.90;;;;;;5028375;28;20444;-65
2023/09/16 07:06:14;;;;;;;16.67;13.63;;;15.50;99.90;;;;;;5029313;28;20049;-64
2023/09/16 07:08:40;;;;;;;19.27;14.32;;;15.80;99.90;;;;;;5029379;28;20042;-65
2023/09/16 07:11:05;;;;;;;17.25;13.80;;;16.00;99.90;;;;;;5028306;28;20049;-65
2023/09/16 07:13:31;;;;;;;17.25;13.75;;;16.00;99.90;;;;;;5029149;28;20043;-64
2023/09/16 07:15:56;;;;;;;17.55;13.32;;;16.00;99.90;;;;;;5028580;28;20128;-65
2023/09/16 07:18:22;;;;;;;18.20;13.90;;;16.10;99.90;;;;;;5028488;28;20083;-65
2023/09/16 07:20:48;;;;;;;16.33;13.38;;;16.10;99.90;;;;;;5029132;28;20433;-64
2023/09/16 07:23:14;;;;;;;16.52;13.25;;;16.10;99.90;;;;;;5029161;28;20042;-64
2023/09/16 07:25:40;;;;;;;17.88;13.85;;;16.10;99.90;;;;;;5029698;28;20045;-65
2023/09/16 07:28:07;;;;;;;16.05;12.57;;;16.10;99.90;;;;;;5028807;28;20422;-65
2023/09/16 07:30:36;;;;;;;18.23;14.02;;;16.10;99.90;;;;;;5026614;28;20188;-64
2023/09/16 07:33:02;;;;;;;17.70;13.43;;;16.10;99.90;;;;;;5028061;28;20132;-64
2023/09/16 07:35:28;;;;;;;17.02;13.75;;;16.10;99.90;;;;;;5028707;28;20136;-65
2023/09/16 07:37:53;;;;;;;18.17;13.68;;;16.20;99.90;;;;;;5028334;28;20085;-65
2023/09/16 07:40:19;;;;;;;17.77;14.52;;;16.20;99.90;;;;;;5028163;28;20042;-65
2023/09/16 07:42:45;;;;;;;16.85;13.50;;;16.30;99.90;;;;;;5028592;28;20041;-65
2023/09/16 07:45:10;;;;;;;19.70;15.38;;;16.40;99.90;;;;;;5026433;28;20099;-65
2023/09/16 07:47:36;;;;;;;18.13;14.15;;;16.40;99.90;;;;;;5029568;28;20065;-65
2023/09/16 07:50:02;;;;;;;18.15;14.50;;;16.50;99.90;;;;;;5028538;28;20045;-64
2023/09/16 07:52:29;;;;;;;20.58;14.50;;;16.50;99.90;;;;;;5028499;28;20412;-65
2023/09/16 07:54:59;;;;;;;17.95;14.13;;;16.60;99.90;;;;;;5011865;28;20556;-64
2023/09/16 07:57:25;;;;;;;18.30;13.77;;;16.60;99.90;;;;;;5028929;28;20579;-65
2023/09/16 07:59:50;;;;;;;17.52;14.27;;;16.50;99.90;;;;;;5027895;28;20100;-65
2023/09/16 08:02:17;;;;;;;22.67;14.57;;;16.50;99.90;;;;;;5027933;28;20386;-64
2023/09/16 08:04:42;;;;;;;19.98;13.95;;;16.50;99.90;;;;;;5031624;28;20048;-64
2023/09/16 08:07:08;;;;;;;19.63;14.75;;;16.50;99.90;;;;;;5034341;28;20457;-64
2023/09/16 08:09:34;;;;;;;18.40;14.40;;;16.60;99.90;;;;;;5031517;28;20134;-64
2023/09/16 08:11:59;;;;;;;18.73;15.13;;;16.70;99.90;;;;;;5032416;28;20068;-64
2023/09/16 08:14:25;;;;;;;21.33;13.82;;;16.80;99.90;;;;;;5030686;28;20061;-64
2023/09/16 08:16:52;;;;;;;17.27;12.57;;;16.90;99.90;;;;;;5032480;28;20066;-65
2023/09/16 08:19:19;;;;;;;19.02;13.82;;;17.10;99.90;;;;;;5032563;28;20068;-64
2023/09/16 08:21:44;;;;;;;19.13;14.18;;;17.30;99.90;;;;;;5033119;28;20466;-64
2023/09/16 08:24:10;;;;;;;16.10;13.85;;;17.70;99.90;;;;;;5031490;28;20095;-65
2023/09/16 08:26:36;;;;;;;17.95;13.90;;;17.90;99.90;;;;;;5032528;28;20107;-64
2023/09/16 08:29:01;;;;;;;19.20;14.25;;;18.30;99.90;;;;;;5032869;28;20052;-65
2023/09/16 08:31:27;;;;;;;19.83;14.00;;;18.90;99.90;;;;;;5031127;28;20069;-65
2023/09/16 08:33:55;;;;;;;18.00;12.98;;;19.20;99.90;;;;;;5033199;28;20107;-66
2023/09/16 08:36:22;;;;;;;17.95;14.07;;;19.50;99.90;;;;;;5032007;28;20152;-65
2023/09/16 08:38:47;;;;;;;21.27;14.38;;;19.50;99.90;;;;;;5031900;28;20056;-66
2023/09/16 08:41:46;;;;;;;21.95;14.18;;;19.60;99.90;;;;;;5048375;28;20080;-65
2023/09/16 08:44:14;;;;;;;15.98;12.35;;;19.70;99.90;;;;;;5027770;28;20148;-66
2023/09/16 08:46:49;;;;;;;15.80;12.65;;;19.70;99.90;;;;;;5033544;28;20044;-65
2023/09/16 08:49:17;;;;;;;19.33;13.90;;;20.00;99.90;;;;;;5032167;28;20063;-65
2023/09/16 08:51:45;;;;;;;14.13;12.18;;;20.30;99.80;;;;;;5032216;28;20394;-65
2023/09/16 08:54:11;;;;;;;15.77;11.32;;;20.50;98.80;;;;;;5030780;28;20343;-66
2023/09/16 08:56:38;;;;;;;14.15;11.30;;;20.70;98.00;;;;;;5031623;28;20070;-66
2023/09/16 08:59:04;;;;;;;17.02;11.60;;;20.70;97.60;;;;;;5030785;28;20049;-66
2023/09/16 09:01:29;;;;;;;15.77;11.77;;;20.60;97.50;;;;;;5029848;28;20041;-66
2023/09/16 09:03:57;;;;;;;14.00;11.43;;;20.50;97.60;;;;;;5031059;28;20061;-65
2023/09/16 09:06:24;;;;;;;16.30;11.30;;;20.50;97.80;;;;;;5030974;28;20037;-65
2023/09/16 09:08:49;;;;;;;14.48;11.68;;;20.50;97.90;;;;;;5031640;28;20480;-65
2023/09/16 09:11:15;;;;;;;15.80;12.13;;;20.40;97.70;;;;;;5029525;28;20069;-65
2023/09/16 09:13:44;;;;;;;14.48;10.80;;;20.30;97.60;;;;;;5031370;28;20041;-65
2023/09/16 09:16:14;;;;;;;14.18;10.98;;;20.40;97.10;;;;;;5041269;28;20370;-65
2023/09/16 09:18:40;;;;;;;13.93;9.60;;;20.40;97.50;;;;;;5050954;28;20052;-66
2023/09/16 09:21:06;;;;;;;15.75;11.05;;;20.50;97.40;;;;;;5033647;28;20151;-65
2023/09/16 09:23:32;;;;;;;12.85;9.90;;;20.40;97.20;;;;;;5031323;28;20037;-65
2023/09/16 09:25:57;;;;;;;15.90;11.23;;;20.30;97.40;;;;;;5030365;28;20050;-66
2023/09/16 09:28:23;;;;;;;17.90;11.15;;;20.50;97.00;;;;;;5031050;28;20049;-66
2023/09/16 09:30:49;;;;;;;12.10;8.40;;;20.60;96.50;;;;;;5030578;28;20045;-65
2023/09/16 09:33:19;;;;;;;12.45;9.55;;;20.70;96.30;;;;;;5030518;28;20045;-65
2023/09/16 09:35:45;;;;;;;14.00;10.75;;;20.80;95.90;;;;;;5037202;28;20033;-65
2023/09/16 09:38:11;;;;;;;13.93;10.00;;;20.80;95.90;;;;;;5039142;28;20088;-65
2023/09/16 09:40:37;;;;;;;10.18;7.50;;;20.80;96.20;;;;;;5032729;28;20123;-66
2023/09/16 09:43:03;;;;;;;14.77;9.27;;;21.10;95.90;;;;;;5028755;28;20335;-65
2023/09/16 09:45:35;;;;;;;14.45;10.77;;;21.00;95.80;;;;;;5040933;28;20036;-66
2023/09/16 09:48:00;;;;;;;11.82;9.15;;;21.00;95.50;;;;;;5050205;28;20041;-65
2023/09/16 09:50:30;;;;;;;14.05;10.48;;;21.20;95.50;;;;;;5040132;28;20088;-65
2023/09/16 09:52:56;;;;;;;15.83;11.33;;;21.40;94.80;;;;;;5030458;28;20041;-66
2023/09/16 09:55:24;;;;;;;12.23;8.10;;;21.60;94.30;;;;;;5031691;28;20268;-66
2023/09/16 09:57:51;;;;;;;12.70;9.77;;;21.80;93.90;;;;;;5030792;28;20033;-66
2023/09/16 10:00:22;;;;;;;12.73;9.30;;;22.00;93.60;;;;;;5028607;28;20484;-66
2023/09/16 10:02:49;;;;;;;12.57;9.45;;;22.10;93.40;;;;;;5029657;28;20053;-66
2023/09/16 10:05:17;;;;;;;11.85;8.23;;;22.10;93.60;;;;;;5031974;28;20061;-66
2023/09/16 10:07:44;;;;;;;12.52;8.73;;;22.20;93.60;;;;;;5049558;28;20373;-66
2023/09/16 10:10:16;;;;;;;13.10;9.50;;;22.20;93.70;;;;;;5051127;28;20077;-66
2023/09/16 10:12:43;;;;;;;14.05;10.05;;;22.20;93.50;;;;;;5051813;28;20056;-66
2023/09/16 10:15:10;;;;;;;10.73;8.00;;;22.00;93.50;;;;;;5047959;28;20036;-67
2023/09/16 10:17:35;;;;;;;11.55;9.10;;;22.10;93.50;;;;;;5049494;28;20116;-66
2023/09/16 10:20:02;;;;;;;12.20;8.98;;;22.10;93.30;;;;;;5049945;28;20570;-66
2023/09/16 10:22:32;;;;;;;11.95;8.27;;;22.20;93.20;;;;;;5049612;28;20832;-66
2023/09/16 10:24:57;;;;;;;13.10;10.15;;;22.10;93.30;;;;;;5032523;28;20087;-66
2023/09/16 10:27:27;;;;;;;14.07;9.65;;;22.20;92.80;;;;;;5050520;28;20172;-66
2023/09/16 10:29:55;;;;;;;12.32;8.05;;;22.10;92.60;;;;;;5047054;28;20505;-66
2023/09/16 10:32:21;;;;;;;12.90;8.25;;;22.20;92.30;;;;;;5049084;28;20047;-66
2023/09/16 10:34:48;;;;;;;10.38;7.72;;;22.20;92.10;;;;;;5049675;28;20033;-66
2023/09/16 10:37:20;;;;;;;8.90;6.95;;;22.30;92.10;;;;;;5031213;28;20049;-66
2023/09/16 10:39:46;;;;;;;15.15;11.00;;;22.30;92.00;;;;;;5028829;28;20045;-66
2023/09/16 10:42:16;;;;;;;10.60;8.07;;;22.20;91.70;;;;;;5029632;28;20145;-66
2023/09/16 10:44:42;;;;;;;10.27;6.65;;;22.20;91.70;;;;;;5028088;28;20041;-66
2023/09/16 10:47:09;;;;;;;9.25;7.22;;;22.20;91.70;;;;;;5048635;28;20037;-66
2023/09/16 10:49:34;;;;;;;14.43;9.00;;;22.20;91.80;;;;;;5049645;28;20060;-67
2023/09/16 10:52:03;;;;;;;7.95;5.95;;;22.30;91.60;;;;;;5049923;28;20033;-67
2023/09/16 10:54:45;;;;;;;12.73;9.13;;;22.30;91.60;;;;;;5048099;28;20045;-66
2023/09/16 10:57:25;;;;;;;7.53;5.85;;;22.40;91.30;;;;;;5049442;28;20117;-66
2023/09/16 10:59:52;;;;;;;9.18;6.72;;;22.40;91.50;;;;;;5046884;28;20381;-66
2023/09/16 11:02:56;;;;;;;11.10;6.65;;;22.50;91.50;;;;;;5048215;28;20385;-66
2023/09/16 11:05:22;;;;;;;8.77;6.40;;;22.60;91.50;;;;;;4975800;28;20155;-67
2023/09/16 11:07:48;;;;;;;8.05;6.22;;;22.70;91.30;;;;;;5041055;28;20056;-66
2023/09/16 11:10:13;;;;;;;8.35;6.65;;;22.80;91.20;;;;;;5048196;28;20127;-67
2023/09/16 11:12:40;;;;;;;9.18;6.18;;;22.70;91.00;;;;;;5048465;28;20124;-67
2023/09/16 11:15:07;;;;;;;8.35;6.03;;;22.70;90.90;;;;;;5048365;28;20492;-67
2023/09/16 11:17:33;;;;;;;9.98;7.30;;;22.70;90.70;;;;;;5031925;28;20102;-67
2023/09/16 11:20:21;;;;;;;7.18;6.05;;;22.80;90.70;;;;;;5029051;28;20041;-66
2023/09/16 11:22:48;;;;;;;9.18;6.03;;;22.80;90.20;;;;;;5028320;28;20060;-66
2023/09/16 11:25:17;;;;;;;9.10;6.65;;;22.70;90.70;;;;;;5027811;28;20087;-66
2023/09/16 11:27:46;;;;;;;9.45;7.25;;;22.80;90.20;;;;;;5029136;28;20041;-66
2023/09/16 11:30:14;;;;;;;8.70;5.75;;;22.80;89.30;;;;;;5028024;28;20069;-66
2023/09/16 11:32:41;;;;;;;10.05;7.03;;;22.90;88.80;;;;;;5028227;28;20132;-66
2023/09/16 11:35:07;;;;;;;7.93;5.22;;;22.90;87.40;;;;;;5028736;28;20049;-66
2023/09/16 11:37:33;;;;;;;10.80;6.53;;;23.00;86.70;;;;;;5028549;28;20052;-66
2023/09/16 11:40:00;;;;;;;6.30;4.97;;;23.10;85.90;;;;;;5027237;28;20033;-66
2023/09/16 11:42:26;;;;;;;7.47;5.03;;;23.20;85.80;;;;;;5029974;28;20053;-66
2023/09/16 11:44:55;;;;;;;5.63;4.45;;;23.30;85.60;;;;;;5026795;28;20115;-67
2023/09/16 11:47:20;;;;;;;6.97;4.88;;;23.40;85.10;;;;;;5027530;28;20046;-66
2023/09/16 11:49:48;;;;;;;6.07;3.90;;;23.50;84.00;;;;;;5028719;28;20072;-66
2023/09/16 11:52:13;;;;;;;7.22;4.07;;;23.50;83.00;;;;;;5030318;28;20052;-66
2023/09/16 11:54:39;;;;;;;7.50;4.85;;;23.60;82.30;;;;;;5027286;28;20120;-66
2023/09/16 11:57:05;;;;;;;5.07;4.28;;;23.60;81.30;;;;;;5028560;28;20073;-66
2023/09/16 11:59:31;;;;;;;6.75;4.13;;;23.70;80.70;;;;;;5026377;28;20045;-66
2023/09/16 12:01:56;;;;;;;3.53;3.15;;;23.70;80.60;;;;;;5035347;28;20041;-66
2023/09/16 12:04:22;;;;;;;5.90;3.33;;;23.70;80.20;;;;;;5048594;28;20059;-66
2023/09/16 12:06:49;;;;;;;3.03;2.55;;;23.80;79.50;;;;;;5050248;28;20084;-66
2023/09/16 12:09:19;;;;;;;4.65;2.65;;;23.90;78.50;;;;;;5047394;28;20131;-66
2023/09/16 12:11:49;;;;;;;3.03;2.70;;;23.90;76.80;;;;;;5050012;28;20480;-66
2023/09/16 12:14:14;;;;;;;2.88;2.35;;;24.00;76.10;;;;;;5046495;28;20049;-67
2023/09/16 12:16:40;;;;;;;3.13;2.53;;;23.90;75.30;;;;;;5048018;28;20091;-66
2023/09/16 12:19:06;;;;;;;3.88;2.35;;;24.00;74.80;;;;;;5028276;28;20041;-66
2023/09/16 12:21:33;;;;;;;2.90;2.42;;;23.90;73.70;;;;;;5028575;28;20121;-66
2023/09/16 12:23:59;;;;;;;3.90;2.38;;;24.00;73.30;;;;;;5027814;28;20037;-67
2023/09/16 12:26:25;;;;;;;5.15;2.42;;;24.00;72.90;;;;;;5027540;28;20380;-66
2023/09/16 12:28:51;;;;;;;4.43;2.08;;;24.00;72.00;;;;;;5027942;28;20446;-67
2023/09/16 12:31:23;;;;;;;4.82;2.08;;;24.00;70.50;;;;;;5026287;28;20155;-66
2023/09/16 12:33:54;;;;;;;2.85;2.08;;;24.00;68.40;;;;;;5027162;28;20430;-66